sensor_id;sensor_type;location;lat;lon;timestamp;temperature;humidity
23721;DHT22;42950;52.134;5.578;2023-03-12T00:00:33;2.30;99.90
23721;DHT22;42950;52.134;5.578;2023-03-12T00:02:58;2.30;99.90
23721;DHT22;42950;52.134;5.578;2023-03-12T00:05:24;2.30;99.90
23721;DHT22;42950;52.134;5.578;2023-03-12T00:07:53;2.20;99.90
23721;DHT22;42950;52.134;5.578;2023-03-12T00:10:19;2.20;99.90
23721;DHT22;42950;52.134;5.578;2023-03-12T00:12:45;2.20;99.90
23721;DHT22;42950;52.134;5.578;2023-03-12T00:15:11;2.20;99.90
23721;DHT22;42950;52.134;5.578;2023-03-12T00:17:36;2.20;99.90
23721;DHT22;42950;52.134;5.578;2023-03-12T00:20:03;2.20;99.90
23721;DHT22;42950;52.134;5.578;2023-03-12T00:22:31;2.20;99.90
23721;DHT22;42950;52.134;5.578;2023-03-12T00:24:57;2.20;99.90
23721;DHT22;42950;52.134;5.578;2023-03-12T00:27:23;2.20;99.90
23721;DHT22;42950;52.134;5.578;2023-03-12T00:29:49;2.30;99.90
23721;DHT22;42950;52.134;5.578;2023-03-12T00:32:15;2.30;99.90
23721;DHT22;42950;52.134;5.578;2023-03-12T00:34:41;2.40;99.90
23721;DHT22;42950;52.134;5.578;2023-03-12T00:37:07;2.50;99.90
23721;DHT22;42950;52.134;5.578;2023-03-12T00:39:33;2.40;99.90
23721;DHT22;42950;52.134;5.578;2023-03-12T00:41:59;2.50;99.90
23721;DHT22;42950;52.134;5.578;2023-03-12T00:44:25;2.50;99.90
23721;DHT22;42950;52.134;5.578;2023-03-12T00:46:50;2.50;99.90
23721;DHT22;42950;52.134;5.578;2023-03-12T00:49:16;2.50;99.90
23721;DHT22;42950;52.134;5.578;2023-03-12T00:51:43;2.50;99.90
23721;DHT22;42950;52.134;5.578;2023-03-12T00:54:09;2.50;99.90
23721;DHT22;42950;52.134;5.578;2023-03-12T00:56:35;2.60;99.90
23721;DHT22;42950;52.134;5.578;2023-03-12T00:59:00;2.60;99.90
23721;DHT22;42950;52.134;5.578;2023-03-12T01:01:26;2.70;99.90
23721;DHT22;42950;52.134;5.578;2023-03-12T01:03:53;2.60;99.90
23721;DHT22;42950;52.134;5.578;2023-03-12T01:06:20;2.70;99.90
23721;DHT22;42950;52.134;5.578;2023-03-12T01:08:45;2.70;99.90
23721;DHT22;42950;52.134;5.578;2023-03-12T01:11:13;2.70;99.90
23721;DHT22;42950;52.134;5.578;2023-03-12T01:13:39;2.80;99.90
23721;DHT22;42950;52.134;5.578;2023-03-12T01:16:05;2.70;99.90
23721;DHT22;42950;52.134;5.578;2023-03-12T01:18:30;2.70;99.90
23721;DHT22;42950;52.134;5.578;2023-03-12T01:20:56;2.70;99.90
23721;DHT22;42950;52.134;5.578;2023-03-12T01:23:22;2.60;99.90
23721;DHT22;42950;52.134;5.578;2023-03-12T01:25:48;2.60;99.90
23721;DHT22;42950;52.134;5.578;2023-03-12T01:28:16;2.60;99.90
23721;DHT22;42950;52.134;5.578;2023-03-12T01:30:42;2.50;99.90
23721;DHT22;42950;52.134;5.578;2023-03-12T01:33:07;2.60;99.90
23721;DHT22;42950;52.134;5.578;2023-03-12T01:35:38;2.60;99.90
23721;DHT22;42950;52.134;5.578;2023-03-12T01:38:12;2.60;99.90
23721;DHT22;42950;52.134;5.578;2023-03-12T01:40:38;2.60;99.90
23721;DHT22;42950;52.134;5.578;2023-03-12T01:46:16;2.60;99.90
23721;DHT22;42950;52.134;5.578;2023-03-12T01:48:49;2.60;99.90
23721;DHT22;42950;52.134;5.578;2023-03-12T01:51:17;2.60;99.90
23721;DHT22;42950;52.134;5.578;2023-03-12T01:53:47;2.60;99.90
23721;DHT22;42950;52.134;5.578;2023-03-12T01:56:16;2.60;99.90
23721;DHT22;42950;52.134;5.578;2023-03-12T01:58:51;2.60;99.90
23721;DHT22;42950;52.134;5.578;2023-03-12T02:01:18;2.60;99.90
23721;DHT22;42950;52.134;5.578;2023-03-12T02:03:48;2.60;99.90
23721;DHT22;42950;52.134;5.578;2023-03-12T02:06:19;2.70;99.90
23721;DHT22;42950;52.134;5.578;2023-03-12T02:08:47;2.60;99.90
23721;DHT22;42950;52.134;5.578;2023-03-12T02:11:13;2.70;99.90
23721;DHT22;42950;52.134;5.578;2023-03-12T02:13:40;2.70;99.90
23721;DHT22;42950;52.134;5.578;2023-03-12T02:16:06;2.70;99.90
23721;DHT22;42950;52.134;5.578;2023-03-12T02:18:34;2.70;99.90
23721;DHT22;42950;52.134;5.578;2023-03-12T02:21:20;2.70;99.90
23721;DHT22;42950;52.134;5.578;2023-03-12T02:26:38;2.80;99.90
23721;DHT22;42950;52.134;5.578;2023-03-12T02:29:06;2.80;99.90
23721;DHT22;42950;52.134;5.578;2023-03-12T02:31:39;2.80;99.90
23721;DHT22;42950;52.134;5.578;2023-03-12T02:34:07;2.90;99.90
23721;DHT22;42950;52.134;5.578;2023-03-12T02:36:34;2.90;99.90
23721;DHT22;42950;52.134;5.578;2023-03-12T02:38:59;2.90;99.90
23721;DHT22;42950;52.134;5.578;2023-03-12T02:41:29;2.90;99.90
23721;DHT22;42950;52.134;5.578;2023-03-12T02:46:42;2.90;99.90
23721;DHT22;42950;52.134;5.578;2023-03-12T02:49:08;2.80;99.90
23721;DHT22;42950;52.134;5.578;2023-03-12T02:51:37;2.90;99.90
23721;DHT22;42950;52.134;5.578;2023-03-12T02:54:03;2.90;99.90
23721;DHT22;42950;52.134;5.578;2023-03-12T02:56:29;2.90;99.90
23721;DHT22;42950;52.134;5.578;2023-03-12T02:58:55;3.00;99.90
23721;DHT22;42950;52.134;5.578;2023-03-12T03:01:21;3.00;99.90
23721;DHT22;42950;52.134;5.578;2023-03-12T03:03:47;3.00;99.90
23721;DHT22;42950;52.134;5.578;2023-03-12T03:06:13;3.00;99.90
23721;DHT22;42950;52.134;5.578;2023-03-12T03:08:42;3.00;99.90
23721;DHT22;42950;52.134;5.578;2023-03-12T03:11:07;3.10;99.90
23721;DHT22;42950;52.134;5.578;2023-03-12T03:13:34;3.10;99.90
23721;DHT22;42950;52.134;5.578;2023-03-12T03:16:01;3.10;99.90
23721;DHT22;42950;52.134;5.578;2023-03-12T03:18:29;3.10;99.90
23721;DHT22;42950;52.134;5.578;2023-03-12T03:21:00;3.10;99.90
23721;DHT22;42950;52.134;5.578;2023-03-12T03:23:26;3.10;99.90
23721;DHT22;42950;52.134;5.578;2023-03-12T03:25:52;3.20;99.90
23721;DHT22;42950;52.134;5.578;2023-03-12T03:28:19;3.20;99.90
23721;DHT22;42950;52.134;5.578;2023-03-12T03:30:45;3.20;99.90
23721;DHT22;42950;52.134;5.578;2023-03-12T03:33:11;3.20;99.90
23721;DHT22;42950;52.134;5.578;2023-03-12T03:35:37;3.20;99.90
23721;DHT22;42950;52.134;5.578;2023-03-12T03:38:04;3.20;99.90
23721;DHT22;42950;52.134;5.578;2023-03-12T03:40:30;3.20;99.90
23721;DHT22;42950;52.134;5.578;2023-03-12T03:42:55;3.20;99.90
23721;DHT22;42950;52.134;5.578;2023-03-12T03:45:21;3.20;99.90
23721;DHT22;42950;52.134;5.578;2023-03-12T03:47:47;3.30;99.90
23721;DHT22;42950;52.134;5.578;2023-03-12T03:50:12;3.20;99.90
23721;DHT22;42950;52.134;5.578;2023-03-12T03:52:38;3.20;99.90
23721;DHT22;42950;52.134;5.578;2023-03-12T03:55:04;3.30;99.90
23721;DHT22;42950;52.134;5.578;2023-03-12T03:57:30;3.20;99.90
23721;DHT22;42950;52.134;5.578;2023-03-12T03:59:56;3.20;99.90
23721;DHT22;42950;52.134;5.578;2023-03-12T04:02:24;3.20;99.90
23721;DHT22;42950;52.134;5.578;2023-03-12T04:04:50;3.20;99.90
23721;DHT22;42950;52.134;5.578;2023-03-12T04:07:15;3.20;99.90
23721;DHT22;42950;52.134;5.578;2023-03-12T04:09:41;3.30;99.90
23721;DHT22;42950;52.134;5.578;2023-03-12T04:12:07;3.20;99.90
23721;DHT22;42950;52.134;5.578;2023-03-12T04:14:32;3.20;99.90
23721;DHT22;42950;52.134;5.578;2023-03-12T04:16:59;3.30;99.90
23721;DHT22;42950;52.134;5.578;2023-03-12T04:19:25;3.30;99.90
23721;DHT22;42950;52.134;5.578;2023-03-12T04:21:50;3.40;99.90
23721;DHT22;42950;52.134;5.578;2023-03-12T04:24:16;3.30;99.90
23721;DHT22;42950;52.134;5.578;2023-03-12T04:26:43;3.40;99.90
23721;DHT22;42950;52.134;5.578;2023-03-12T04:29:09;3.40;99.90
23721;DHT22;42950;52.134;5.578;2023-03-12T04:31:34;3.40;99.90
23721;DHT22;42950;52.134;5.578;2023-03-12T04:34:01;3.40;99.90
23721;DHT22;42950;52.134;5.578;2023-03-12T04:36:27;3.50;99.90
23721;DHT22;42950;52.134;5.578;2023-03-12T04:38:52;3.40;99.90
23721;DHT22;42950;52.134;5.578;2023-03-12T04:41:18;3.50;99.90
23721;DHT22;42950;52.134;5.578;2023-03-12T04:43:44;3.40;99.90
23721;DHT22;42950;52.134;5.578;2023-03-12T04:46:10;3.40;99.90
23721;DHT22;42950;52.134;5.578;2023-03-12T04:48:36;3.40;99.90
23721;DHT22;42950;52.134;5.578;2023-03-12T04:51:03;3.40;99.90
23721;DHT22;42950;52.134;5.578;2023-03-12T04:53:29;3.40;99.90
23721;DHT22;42950;52.134;5.578;2023-03-12T04:55:55;3.40;99.90
23721;DHT22;42950;52.134;5.578;2023-03-12T04:58:21;3.40;99.90
23721;DHT22;42950;52.134;5.578;2023-03-12T05:00:49;3.30;99.90
23721;DHT22;42950;52.134;5.578;2023-03-12T05:03:15;3.40;99.90
23721;DHT22;42950;52.134;5.578;2023-03-12T05:05:42;3.30;99.90
23721;DHT22;42950;52.134;5.578;2023-03-12T05:08:09;3.30;99.90
23721;DHT22;42950;52.134;5.578;2023-03-12T05:10:35;3.30;99.90
23721;DHT22;42950;52.134;5.578;2023-03-12T05:13:00;3.20;99.90
23721;DHT22;42950;52.134;5.578;2023-03-12T05:15:27;3.20;99.90
23721;DHT22;42950;52.134;5.578;2023-03-12T05:17:53;3.10;99.90
23721;DHT22;42950;52.134;5.578;2023-03-12T05:20:19;3.10;99.90
23721;DHT22;42950;52.134;5.578;2023-03-12T05:22:45;3.10;99.90
23721;DHT22;42950;52.134;5.578;2023-03-12T05:25:10;3.00;99.90
23721;DHT22;42950;52.134;5.578;2023-03-12T05:27:36;3.10;99.90
23721;DHT22;42950;52.134;5.578;2023-03-12T05:30:04;3.10;99.90
23721;DHT22;42950;52.134;5.578;2023-03-12T05:32:31;3.00;99.90
23721;DHT22;42950;52.134;5.578;2023-03-12T05:34:56;3.10;99.90
23721;DHT22;42950;52.134;5.578;2023-03-12T05:37:23;3.10;99.90
23721;DHT22;42950;52.134;5.578;2023-03-12T05:39:49;3.10;99.90
23721;DHT22;42950;52.134;5.578;2023-03-12T05:42:14;3.10;99.90
23721;DHT22;42950;52.134;5.578;2023-03-12T05:44:41;3.10;99.90
23721;DHT22;42950;52.134;5.578;2023-03-12T05:47:07;3.20;99.90
23721;DHT22;42950;52.134;5.578;2023-03-12T05:49:33;3.20;99.90
23721;DHT22;42950;52.134;5.578;2023-03-12T05:51:59;3.20;99.90
23721;DHT22;42950;52.134;5.578;2023-03-12T05:54:26;3.20;99.90
23721;DHT22;42950;52.134;5.578;2023-03-12T05:56:52;3.20;99.90
23721;DHT22;42950;52.134;5.578;2023-03-12T05:59:17;3.20;99.90
23721;DHT22;42950;52.134;5.578;2023-03-12T06:01:43;3.20;99.90
23721;DHT22;42950;52.134;5.578;2023-03-12T06:04:09;3.20;99.90
23721;DHT22;42950;52.134;5.578;2023-03-12T06:06:35;3.30;99.90
23721;DHT22;42950;52.134;5.578;2023-03-12T06:09:02;3.30;99.90
23721;DHT22;42950;52.134;5.578;2023-03-12T06:11:29;3.20;99.90
23721;DHT22;42950;52.134;5.578;2023-03-12T06:13:56;3.30;99.90
23721;DHT22;42950;52.134;5.578;2023-03-12T06:16:24;3.30;99.90
23721;DHT22;42950;52.134;5.578;2023-03-12T06:18:55;3.30;99.90
23721;DHT22;42950;52.134;5.578;2023-03-12T06:21:24;3.40;99.90
23721;DHT22;42950;52.134;5.578;2023-03-12T06:23:50;3.40;99.90
23721;DHT22;42950;52.134;5.578;2023-03-12T06:26:18;3.40;99.90
23721;DHT22;42950;52.134;5.578;2023-03-12T06:28:45;3.40;99.90
23721;DHT22;42950;52.134;5.578;2023-03-12T06:31:11;3.40;99.90
23721;DHT22;42950;52.134;5.578;2023-03-12T06:33:38;3.50;99.90
23721;DHT22;42950;52.134;5.578;2023-03-12T06:36:06;3.40;99.90
23721;DHT22;42950;52.134;5.578;2023-03-12T06:38:33;3.50;99.90
23721;DHT22;42950;52.134;5.578;2023-03-12T06:41:01;3.50;99.90
23721;DHT22;42950;52.134;5.578;2023-03-12T06:43:29;3.50;99.90
23721;DHT22;42950;52.134;5.578;2023-03-12T06:45:56;3.40;99.90
23721;DHT22;42950;52.134;5.578;2023-03-12T06:48:22;3.50;99.90
23721;DHT22;42950;52.134;5.578;2023-03-12T06:50:50;3.50;99.90
23721;DHT22;42950;52.134;5.578;2023-03-12T06:53:16;3.50;99.90
23721;DHT22;42950;52.134;5.578;2023-03-12T06:55:43;3.50;99.90
23721;DHT22;42950;52.134;5.578;2023-03-12T06:58:09;3.50;99.90
23721;DHT22;42950;52.134;5.578;2023-03-12T07:00:34;3.50;99.90
23721;DHT22;42950;52.134;5.578;2023-03-12T07:03:00;3.50;99.90
23721;DHT22;42950;52.134;5.578;2023-03-12T07:05:26;3.40;99.90
23721;DHT22;42950;52.134;5.578;2023-03-12T07:07:52;3.40;99.90
23721;DHT22;42950;52.134;5.578;2023-03-12T07:10:17;3.40;99.90
23721;DHT22;42950;52.134;5.578;2023-03-12T07:12:43;3.40;99.90
23721;DHT22;42950;52.134;5.578;2023-03-12T07:15:09;3.40;99.90
23721;DHT22;42950;52.134;5.578;2023-03-12T07:17:35;3.40;99.90
23721;DHT22;42950;52.134;5.578;2023-03-12T07:20:01;3.40;99.90
23721;DHT22;42950;52.134;5.578;2023-03-12T07:22:27;3.40;99.90
23721;DHT22;42950;52.134;5.578;2023-03-12T07:24:52;3.40;99.90
23721;DHT22;42950;52.134;5.578;2023-03-12T07:27:18;3.40;99.90
23721;DHT22;42950;52.134;5.578;2023-03-12T07:29:44;3.40;99.90
23721;DHT22;42950;52.134;5.578;2023-03-12T07:32:10;3.40;99.90
23721;DHT22;42950;52.134;5.578;2023-03-12T07:34:35;3.40;99.90
23721;DHT22;42950;52.134;5.578;2023-03-12T07:37:01;3.40;99.90
23721;DHT22;42950;52.134;5.578;2023-03-12T07:39:26;3.40;99.90
23721;DHT22;42950;52.134;5.578;2023-03-12T07:41:52;3.40;99.90
23721;DHT22;42950;52.134;5.578;2023-03-12T07:44:17;3.40;99.90
23721;DHT22;42950;52.134;5.578;2023-03-12T07:46:43;3.40;99.90
23721;DHT22;42950;52.134;5.578;2023-03-12T07:49:08;3.40;99.90
23721;DHT22;42950;52.134;5.578;2023-03-12T07:51:34;3.40;99.90
23721;DHT22;42950;52.134;5.578;2023-03-12T07:54:00;3.40;99.90
23721;DHT22;42950;52.134;5.578;2023-03-12T07:56:25;3.50;99.90
23721;DHT22;42950;52.134;5.578;2023-03-12T07:58:51;3.50;99.90
23721;DHT22;42950;52.134;5.578;2023-03-12T08:01:17;3.40;99.90
23721;DHT22;42950;52.134;5.578;2023-03-12T08:03:42;3.50;99.90
23721;DHT22;42950;52.134;5.578;2023-03-12T08:06:08;3.50;99.90
23721;DHT22;42950;52.134;5.578;2023-03-12T08:08:34;3.50;99.90
23721;DHT22;42950;52.134;5.578;2023-03-12T08:11:02;3.50;99.90
23721;DHT22;42950;52.134;5.578;2023-03-12T08:13:27;3.60;99.90
23721;DHT22;42950;52.134;5.578;2023-03-12T08:15:53;3.60;99.90
23721;DHT22;42950;52.134;5.578;2023-03-12T08:18:20;3.70;99.90
23721;DHT22;42950;52.134;5.578;2023-03-12T08:20:51;3.70;99.90
23721;DHT22;42950;52.134;5.578;2023-03-12T08:23:17;3.70;99.90
23721;DHT22;42950;52.134;5.578;2023-03-12T08:25:48;3.80;99.90
23721;DHT22;42950;52.134;5.578;2023-03-12T08:28:15;3.90;99.90
23721;DHT22;42950;52.134;5.578;2023-03-12T08:31:06;4.00;99.90
23721;DHT22;42950;52.134;5.578;2023-03-12T08:33:34;4.00;99.90
23721;DHT22;42950;52.134;5.578;2023-03-12T08:35:59;4.00;99.90
23721;DHT22;42950;52.134;5.578;2023-03-12T08:38:25;4.00;99.90
23721;DHT22;42950;52.134;5.578;2023-03-12T08:40:58;4.10;99.90
23721;DHT22;42950;52.134;5.578;2023-03-12T08:43:25;4.00;99.90
23721;DHT22;42950;52.134;5.578;2023-03-12T08:45:58;4.00;99.90
23721;DHT22;42950;52.134;5.578;2023-03-12T08:48:25;4.10;99.90
23721;DHT22;42950;52.134;5.578;2023-03-12T08:50:53;4.20;99.90
23721;DHT22;42950;52.134;5.578;2023-03-12T08:53:18;4.30;99.90
23721;DHT22;42950;52.134;5.578;2023-03-12T08:55:44;4.30;99.90
23721;DHT22;42950;52.134;5.578;2023-03-12T08:58:11;4.40;99.90
23721;DHT22;42950;52.134;5.578;2023-03-12T09:00:36;4.40;99.90
23721;DHT22;42950;52.134;5.578;2023-03-12T09:03:02;4.40;99.90
23721;DHT22;42950;52.134;5.578;2023-03-12T09:05:27;4.50;99.90
23721;DHT22;42950;52.134;5.578;2023-03-12T09:07:55;4.50;99.90
23721;DHT22;42950;52.134;5.578;2023-03-12T09:10:20;4.50;99.90
23721;DHT22;42950;52.134;5.578;2023-03-12T09:12:46;4.50;99.90
23721;DHT22;42950;52.134;5.578;2023-03-12T09:15:11;4.50;99.90
23721;DHT22;42950;52.134;5.578;2023-03-12T09:17:37;4.60;99.90
23721;DHT22;42950;52.134;5.578;2023-03-12T09:20:05;4.60;99.90
23721;DHT22;42950;52.134;5.578;2023-03-12T09:22:33;4.70;99.90
23721;DHT22;42950;52.134;5.578;2023-03-12T09:25:05;4.70;99.90
23721;DHT22;42950;52.134;5.578;2023-03-12T09:27:39;4.80;99.90
23721;DHT22;42950;52.134;5.578;2023-03-12T09:30:07;4.90;99.90
23721;DHT22;42950;52.134;5.578;2023-03-12T09:32:33;5.00;99.90
23721;DHT22;42950;52.134;5.578;2023-03-12T09:34:58;5.20;99.90
23721;DHT22;42950;52.134;5.578;2023-03-12T09:37:24;5.20;99.90
23721;DHT22;42950;52.134;5.578;2023-03-12T09:39:50;5.30;99.90
23721;DHT22;42950;52.134;5.578;2023-03-12T09:42:26;5.40;99.90
23721;DHT22;42950;52.134;5.578;2023-03-12T09:44:56;5.50;99.90
23721;DHT22;42950;52.134;5.578;2023-03-12T09:47:34;5.50;99.90
23721;DHT22;42950;52.134;5.578;2023-03-12T09:50:42;5.60;99.90
23721;DHT22;42950;52.134;5.578;2023-03-12T09:53:32;5.80;99.90
23721;DHT22;42950;52.134;5.578;2023-03-12T09:56:02;5.90;99.90
23721;DHT22;42950;52.134;5.578;2023-03-12T09:58:35;6.00;99.90
23721;DHT22;42950;52.134;5.578;2023-03-12T10:06:54;6.10;99.90
23721;DHT22;42950;52.134;5.578;2023-03-12T10:20:27;6.50;99.90
23721;DHT22;42950;52.134;5.578;2023-03-12T10:26:13;6.70;99.90
23721;DHT22;42950;52.134;5.578;2023-03-12T10:28:43;6.80;99.90
23721;DHT22;42950;52.134;5.578;2023-03-12T10:31:17;6.80;99.90
23721;DHT22;42950;52.134;5.578;2023-03-12T10:33:49;6.80;99.90
23721;DHT22;42950;52.134;5.578;2023-03-12T10:36:18;6.90;99.90
23721;DHT22;42950;52.134;5.578;2023-03-12T10:38:45;7.00;99.90
23721;DHT22;42950;52.134;5.578;2023-03-12T10:41:31;7.10;99.90
23721;DHT22;42950;52.134;5.578;2023-03-12T10:44:02;7.10;99.90
23721;DHT22;42950;52.134;5.578;2023-03-12T10:54:26;7.40;99.90
23721;DHT22;42950;52.134;5.578;2023-03-12T10:56:52;7.50;99.90
23721;DHT22;42950;52.134;5.578;2023-03-12T10:59:24;7.50;99.90
23721;DHT22;42950;52.134;5.578;2023-03-12T11:01:51;7.60;99.90
23721;DHT22;42950;52.134;5.578;2023-03-12T11:04:20;7.70;99.90
23721;DHT22;42950;52.134;5.578;2023-03-12T11:12:34;8.10;99.90
23721;DHT22;42950;52.134;5.578;2023-03-12T11:17:49;8.30;99.90
23721;DHT22;42950;52.134;5.578;2023-03-12T11:20:32;8.40;99.90
23721;DHT22;42950;52.134;5.578;2023-03-12T11:23:15;8.50;99.90
23721;DHT22;42950;52.134;5.578;2023-03-12T11:25:41;8.60;99.90
23721;DHT22;42950;52.134;5.578;2023-03-12T11:28:16;8.60;99.90
23721;DHT22;42950;52.134;5.578;2023-03-12T11:30:43;8.70;99.90
23721;DHT22;42950;52.134;5.578;2023-03-12T11:33:10;8.80;99.90
23721;DHT22;42950;52.134;5.578;2023-03-12T11:36:12;8.90;99.90
23721;DHT22;42950;52.134;5.578;2023-03-12T11:44:25;9.10;99.90
23721;DHT22;42950;52.134;5.578;2023-03-12T11:47:35;9.10;99.90
23721;DHT22;42950;52.134;5.578;2023-03-12T11:55:38;9.40;99.90
23721;DHT22;42950;52.134;5.578;2023-03-12T12:01:16;9.40;99.90
23721;DHT22;42950;52.134;5.578;2023-03-12T12:09:12;9.40;99.90
23721;DHT22;42950;52.134;5.578;2023-03-12T12:14:37;9.50;99.90
23721;DHT22;42950;52.134;5.578;2023-03-12T12:17:18;9.60;99.90
23721;DHT22;42950;52.134;5.578;2023-03-12T12:23:06;9.50;99.90
23721;DHT22;42950;52.134;5.578;2023-03-12T12:31:28;9.60;99.90
23721;DHT22;42950;52.134;5.578;2023-03-12T12:36:47;9.60;99.90
23721;DHT22;42950;52.134;5.578;2023-03-12T12:39:48;9.60;99.90
23721;DHT22;42950;52.134;5.578;2023-03-12T12:42:20;9.60;99.90
23721;DHT22;42950;52.134;5.578;2023-03-12T12:44:50;9.60;99.90
23721;DHT22;42950;52.134;5.578;2023-03-12T12:47:30;9.60;99.90
23721;DHT22;42950;52.134;5.578;2023-03-12T12:49:57;9.70;99.90
23721;DHT22;42950;52.134;5.578;2023-03-12T12:52:25;9.80;99.90
23721;DHT22;42950;52.134;5.578;2023-03-12T13:00:08;9.90;99.90
23721;DHT22;42950;52.134;5.578;2023-03-12T13:02:39;9.90;99.90
23721;DHT22;42950;52.134;5.578;2023-03-12T13:05:27;9.90;99.90
23721;DHT22;42950;52.134;5.578;2023-03-12T13:07:53;9.90;99.90
23721;DHT22;42950;52.134;5.578;2023-03-12T13:13:12;10.10;99.90
23721;DHT22;42950;52.134;5.578;2023-03-12T13:15:42;10.10;99.90
23721;DHT22;42950;52.134;5.578;2023-03-12T13:18:23;10.20;99.90
23721;DHT22;42950;52.134;5.578;2023-03-12T13:31:45;10.40;99.90
23721;DHT22;42950;52.134;5.578;2023-03-12T13:36:49;10.30;99.90
23721;DHT22;42950;52.134;5.578;2023-03-12T13:41:46;10.40;99.90
23721;DHT22;42950;52.134;5.578;2023-03-12T13:47:21;10.40;99.90
23721;DHT22;42950;52.134;5.578;2023-03-12T13:50:11;10.50;99.90
23721;DHT22;42950;52.134;5.578;2023-03-12T13:53:15;10.50;99.90
23721;DHT22;42950;52.134;5.578;2023-03-12T13:55:41;10.60;99.90
23721;DHT22;42950;52.134;5.578;2023-03-12T13:58:16;10.70;99.90
23721;DHT22;42950;52.134;5.578;2023-03-12T14:00:52;10.80;99.90
23721;DHT22;42950;52.134;5.578;2023-03-12T14:03:40;10.90;99.90
23721;DHT22;42950;52.134;5.578;2023-03-12T14:06:11;11.10;99.90
23721;DHT22;42950;52.134;5.578;2023-03-12T14:16:55;11.20;99.90
23721;DHT22;42950;52.134;5.578;2023-03-12T14:19:29;11.20;99.90
23721;DHT22;42950;52.134;5.578;2023-03-12T14:22:00;11.30;99.90
23721;DHT22;42950;52.134;5.578;2023-03-12T14:24:38;11.50;99.90
23721;DHT22;42950;52.134;5.578;2023-03-12T14:27:13;11.50;99.90
23721;DHT22;42950;52.134;5.578;2023-03-12T14:29:44;11.60;99.90
23721;DHT22;42950;52.134;5.578;2023-03-12T14:32:19;11.70;99.90
23721;DHT22;42950;52.134;5.578;2023-03-12T14:34:53;11.70;99.90
23721;DHT22;42950;52.134;5.578;2023-03-12T14:37:24;11.70;99.90
23721;DHT22;42950;52.134;5.578;2023-03-12T14:40:07;11.60;99.90
23721;DHT22;42950;52.134;5.578;2023-03-12T14:42:39;11.60;99.90
23721;DHT22;42950;52.134;5.578;2023-03-12T14:45:15;11.60;99.90
23721;DHT22;42950;52.134;5.578;2023-03-12T14:47:42;11.60;99.90
23721;DHT22;42950;52.134;5.578;2023-03-12T14:50:29;11.60;99.90
23721;DHT22;42950;52.134;5.578;2023-03-12T14:53:22;11.60;99.90
23721;DHT22;42950;52.134;5.578;2023-03-12T14:55:59;11.60;99.90
23721;DHT22;42950;52.134;5.578;2023-03-12T14:58:25;11.60;99.90
23721;DHT22;42950;52.134;5.578;2023-03-12T15:00:56;11.60;99.90
23721;DHT22;42950;52.134;5.578;2023-03-12T15:03:22;11.60;99.90
23721;DHT22;42950;52.134;5.578;2023-03-12T15:05:49;11.60;99.90
23721;DHT22;42950;52.134;5.578;2023-03-12T15:08:16;11.60;99.90
23721;DHT22;42950;52.134;5.578;2023-03-12T15:10:56;11.60;99.90
23721;DHT22;42950;52.134;5.578;2023-03-12T15:13:24;11.70;99.90
23721;DHT22;42950;52.134;5.578;2023-03-12T15:15:52;11.60;99.90
23721;DHT22;42950;52.134;5.578;2023-03-12T15:18:25;11.60;99.90
23721;DHT22;42950;52.134;5.578;2023-03-12T15:20:52;11.60;99.90
23721;DHT22;42950;52.134;5.578;2023-03-12T15:23:20;11.60;99.90
23721;DHT22;42950;52.134;5.578;2023-03-12T15:25:46;11.60;99.90
23721;DHT22;42950;52.134;5.578;2023-03-12T15:30:41;11.40;99.90
23721;DHT22;42950;52.134;5.578;2023-03-12T15:35:42;11.30;99.90
23721;DHT22;42950;52.134;5.578;2023-03-12T15:38:15;11.30;99.90
23721;DHT22;42950;52.134;5.578;2023-03-12T15:40:46;11.30;99.90
23721;DHT22;42950;52.134;5.578;2023-03-12T15:43:16;11.20;99.90
23721;DHT22;42950;52.134;5.578;2023-03-12T15:45:43;11.20;99.90
23721;DHT22;42950;52.134;5.578;2023-03-12T15:50:52;11.20;99.90
23721;DHT22;42950;52.134;5.578;2023-03-12T15:56:01;11.20;99.90
23721;DHT22;42950;52.134;5.578;2023-03-12T15:58:39;11.10;99.90
23721;DHT22;42950;52.134;5.578;2023-03-12T16:01:16;11.20;99.90
23721;DHT22;42950;52.134;5.578;2023-03-12T16:03:44;11.20;99.90
23721;DHT22;42950;52.134;5.578;2023-03-12T16:06:15;11.10;99.90
23721;DHT22;42950;52.134;5.578;2023-03-12T16:08:54;11.10;99.90
23721;DHT22;42950;52.134;5.578;2023-03-12T16:11:25;11.20;99.90
23721;DHT22;42950;52.134;5.578;2023-03-12T16:14:17;11.20;99.90
23721;DHT22;42950;52.134;5.578;2023-03-12T16:16:41;11.10;99.90
23721;DHT22;42950;52.134;5.578;2023-03-12T16:19:14;11.10;99.90
23721;DHT22;42950;52.134;5.578;2023-03-12T16:21:41;11.10;99.90
23721;DHT22;42950;52.134;5.578;2023-03-12T16:24:07;11.10;99.90
23721;DHT22;42950;52.134;5.578;2023-03-12T16:26:34;11.10;99.90
23721;DHT22;42950;52.134;5.578;2023-03-12T16:29:01;11.10;99.90
23721;DHT22;42950;52.134;5.578;2023-03-12T16:31:27;11.10;99.90
23721;DHT22;42950;52.134;5.578;2023-03-12T16:33:53;11.00;99.90
23721;DHT22;42950;52.134;5.578;2023-03-12T16:36:18;11.00;99.90
23721;DHT22;42950;52.134;5.578;2023-03-12T16:38:45;11.00;99.90
23721;DHT22;42950;52.134;5.578;2023-03-12T16:41:12;11.00;99.90
23721;DHT22;42950;52.134;5.578;2023-03-12T16:43:38;11.00;99.90
23721;DHT22;42950;52.134;5.578;2023-03-12T16:46:07;10.90;99.90
23721;DHT22;42950;52.134;5.578;2023-03-12T16:48:34;10.90;99.90
23721;DHT22;42950;52.134;5.578;2023-03-12T16:51:00;10.80;99.90
23721;DHT22;42950;52.134;5.578;2023-03-12T16:53:25;10.80;99.90
23721;DHT22;42950;52.134;5.578;2023-03-12T16:55:54;10.80;99.90
23721;DHT22;42950;52.134;5.578;2023-03-12T16:58:21;10.70;99.90
23721;DHT22;42950;52.134;5.578;2023-03-12T17:00:48;10.70;99.90
23721;DHT22;42950;52.134;5.578;2023-03-12T17:03:26;10.70;99.90
23721;DHT22;42950;52.134;5.578;2023-03-12T17:05:52;10.70;99.90
23721;DHT22;42950;52.134;5.578;2023-03-12T17:08:17;10.70;99.90
23721;DHT22;42950;52.134;5.578;2023-03-12T17:10:43;10.70;99.90
23721;DHT22;42950;52.134;5.578;2023-03-12T17:13:19;10.70;99.90
23721;DHT22;42950;52.134;5.578;2023-03-12T17:15:46;10.70;99.90
23721;DHT22;42950;52.134;5.578;2023-03-12T17:18:12;10.70;99.90
23721;DHT22;42950;52.134;5.578;2023-03-12T17:20:38;10.70;99.90
23721;DHT22;42950;52.134;5.578;2023-03-12T17:23:05;10.60;99.90
23721;DHT22;42950;52.134;5.578;2023-03-12T17:25:33;10.60;99.90
23721;DHT22;42950;52.134;5.578;2023-03-12T17:27:59;10.60;99.90
23721;DHT22;42950;52.134;5.578;2023-03-12T17:30:26;10.50;99.90
23721;DHT22;42950;52.134;5.578;2023-03-12T17:32:52;10.50;99.90
23721;DHT22;42950;52.134;5.578;2023-03-12T17:35:19;10.40;99.90
23721;DHT22;42950;52.134;5.578;2023-03-12T17:37:44;10.30;99.90
23721;DHT22;42950;52.134;5.578;2023-03-12T17:40:13;10.30;99.90
23721;DHT22;42950;52.134;5.578;2023-03-12T17:42:39;10.30;99.90
23721;DHT22;42950;52.134;5.578;2023-03-12T17:45:07;10.30;99.90
23721;DHT22;42950;52.134;5.578;2023-03-12T17:47:33;10.30;99.90
23721;DHT22;42950;52.134;5.578;2023-03-12T17:49:58;10.20;99.90
23721;DHT22;42950;52.134;5.578;2023-03-12T17:52:24;10.20;99.90
23721;DHT22;42950;52.134;5.578;2023-03-12T17:54:50;10.20;99.90
23721;DHT22;42950;52.134;5.578;2023-03-12T17:57:15;10.20;99.90